sensor_id;sensor_type;location;lat;lon;timestamp;pressure;altitude;pressure_sealevel;temperature;humidity
12172;BME280;6149;52.418;13.668;2023-05-20T00:00:58;102172.19;;;9.83;100.00
12172;BME280;6149;52.418;13.668;2023-05-20T00:03:26;102169.66;;;9.79;100.00
12172;BME280;6149;52.418;13.668;2023-05-20T00:05:55;102176.78;;;9.75;100.00
12172;BME280;6149;52.418;13.668;2023-05-20T00:08:25;102179.50;;;9.72;100.00
12172;BME280;6149;52.418;13.668;2023-05-20T00:10:56;102171.66;;;9.69;100.00
12172;BME280;6149;52.418;13.668;2023-05-20T00:13:32;102169.06;;;9.66;100.00
12172;BME280;6149;52.418;13.668;2023-05-20T00:16:00;102171.78;;;9.64;100.00
12172;BME280;6149;52.418;13.668;2023-05-20T00:18:27;102168.34;;;9.61;100.00
12172;BME280;6149;52.418;13.668;2023-05-20T00:20:56;102167.50;;;9.59;100.00
12172;BME280;6149;52.418;13.668;2023-05-20T00:23:23;102165.81;;;9.56;100.00
12172;BME280;6149;52.418;13.668;2023-05-20T00:25:50;102162.34;;;9.54;100.00
12172;BME280;6149;52.418;13.668;2023-05-20T00:28:16;102168.44;;;9.56;100.00
12172;BME280;6149;52.418;13.668;2023-05-20T00:30:45;102161.47;;;9.54;100.00
12172;BME280;6149;52.418;13.668;2023-05-20T00:33:12;102157.94;;;9.55;100.00
12172;BME280;6149;52.418;13.668;2023-05-20T00:35:39;102165.88;;;9.53;100.00
12172;BME280;6149;52.418;13.668;2023-05-20T00:38:05;102163.25;;;9.53;100.00
12172;BME280;6149;52.418;13.668;2023-05-20T00:40:33;102165.84;;;9.55;100.00
12172;BME280;6149;52.418;13.668;2023-05-20T00:43:02;102166.69;;;9.57;100.00
12172;BME280;6149;52.418;13.668;2023-05-20T00:45:29;102159.63;;;9.57;100.00
12172;BME280;6149;52.418;13.668;2023-05-20T00:47:59;102160.50;;;9.58;100.00
12172;BME280;6149;52.418;13.668;2023-05-20T00:50:30;102166.50;;;9.64;100.00
12172;BME280;6149;52.418;13.668;2023-05-20T00:52:58;102164.66;;;9.66;100.00
12172;BME280;6149;52.418;13.668;2023-05-20T00:55:26;102162.88;;;9.67;100.00
12172;BME280;6149;52.418;13.668;2023-05-20T00:57:55;102171.59;;;9.70;100.00
12172;BME280;6149;52.418;13.668;2023-05-20T01:00:25;102168.91;;;9.73;100.00
12172;BME280;6149;52.418;13.668;2023-05-20T01:02:54;102160.91;;;9.77;100.00
12172;BME280;6149;52.418;13.668;2023-05-20T01:05:25;102156.44;;;9.79;100.00
12172;BME280;6149;52.418;13.668;2023-05-20T01:07:58;102152.00;;;9.81;100.00
12172;BME280;6149;52.418;13.668;2023-05-20T01:10:28;102152.00;;;9.81;100.00
12172;BME280;6149;52.418;13.668;2023-05-20T01:13:00;102148.44;;;9.82;100.00
12172;BME280;6149;52.418;13.668;2023-05-20T01:15:30;102146.63;;;9.84;100.00
12172;BME280;6149;52.418;13.668;2023-05-20T01:18:00;102149.25;;;9.85;100.00
12172;BME280;6149;52.418;13.668;2023-05-20T01:20:31;102150.16;;;10.17;100.00
12172;BME280;6149;52.418;13.668;2023-05-20T01:23:02;102145.19;;;10.04;100.00
12172;BME280;6149;52.418;13.668;2023-05-20T01:25:29;102152.28;;;10.02;100.00
12172;BME280;6149;52.418;13.668;2023-05-20T01:27:57;102150.66;;;9.98;100.00
12172;BME280;6149;52.418;13.668;2023-05-20T01:30:38;102147.09;;;10.01;100.00
12172;BME280;6149;52.418;13.668;2023-05-20T01:33:10;102143.53;;;10.02;100.00
12172;BME280;6149;52.418;13.668;2023-05-20T01:35:41;102143.44;;;10.05;100.00
12172;BME280;6149;52.418;13.668;2023-05-20T01:38:10;102134.59;;;10.06;100.00
12172;BME280;6149;52.418;13.668;2023-05-20T01:40:38;102139.88;;;10.06;100.00
12172;BME280;6149;52.418;13.668;2023-05-20T01:43:06;102139.75;;;10.11;100.00
12172;BME280;6149;52.418;13.668;2023-05-20T01:45:34;102137.94;;;10.13;100.00
12172;BME280;6149;52.418;13.668;2023-05-20T01:48:04;102142.25;;;10.17;100.00
12172;BME280;6149;52.418;13.668;2023-05-20T01:50:30;102143.06;;;10.19;100.00
12172;BME280;6149;52.418;13.668;2023-05-20T01:53:00;102141.25;;;10.22;100.00
12172;BME280;6149;52.418;13.668;2023-05-20T01:55:30;102139.44;;;10.24;100.00
12172;BME280;6149;52.418;13.668;2023-05-20T01:57:58;102140.25;;;10.26;100.00
12172;BME280;6149;52.418;13.668;2023-05-20T02:00:24;102133.91;;;10.33;100.00
12172;BME280;6149;52.418;13.668;2023-05-20T02:02:53;102138.66;;;10.52;100.00
12172;BME280;6149;52.418;13.668;2023-05-20T02:05:20;102144.06;;;10.47;100.00
12172;BME280;6149;52.418;13.668;2023-05-20T02:07:46;102131.00;;;10.41;100.00
12172;BME280;6149;52.418;13.668;2023-05-20T02:10:13;102127.47;;;10.42;100.00
12172;BME280;6149;52.418;13.668;2023-05-20T02:12:43;102140.69;;;10.42;100.00
12172;BME280;6149;52.418;13.668;2023-05-20T02:15:11;102135.09;;;10.53;100.00
12172;BME280;6149;52.418;13.668;2023-05-20T02:17:38;102135.09;;;10.53;100.00
12172;BME280;6149;52.418;13.668;2023-05-20T02:20:08;102124.56;;;10.51;100.00
12172;BME280;6149;52.418;13.668;2023-05-20T02:22:35;102128.66;;;10.63;100.00
12172;BME280;6149;52.418;13.668;2023-05-20T02:25:03;102125.25;;;10.58;100.00
12172;BME280;6149;52.418;13.668;2023-05-20T02:27:31;102124.44;;;10.56;100.00
12172;BME280;6149;52.418;13.668;2023-05-20T02:29:59;102125.88;;;10.67;100.00
12172;BME280;6149;52.418;13.668;2023-05-20T02:32:27;102125.19;;;10.61;100.00
12172;BME280;6149;52.418;13.668;2023-05-20T02:34:59;102125.09;;;10.64;100.00
12172;BME280;6149;52.418;13.668;2023-05-20T02:37:25;102122.34;;;10.67;100.00
12172;BME280;6149;52.418;13.668;2023-05-20T02:39:55;102120.50;;;10.70;100.00
12172;BME280;6149;52.418;13.668;2023-05-20T02:42:23;102125.13;;;10.62;100.00
12172;BME280;6149;52.418;13.668;2023-05-20T02:44:49;102127.81;;;10.61;100.00
12172;BME280;6149;52.418;13.668;2023-05-20T02:47:21;102127.31;;;10.78;100.00
12172;BME280;6149;52.418;13.668;2023-05-20T02:49:47;102124.44;;;10.85;100.00
12172;BME280;6149;52.418;13.668;2023-05-20T02:52:14;102135.91;;;10.86;100.00
12172;BME280;6149;52.418;13.668;2023-05-20T02:54:41;102142.47;;;10.73;100.00
12172;BME280;6149;52.418;13.668;2023-05-20T02:57:09;102136.41;;;10.69;100.00
12172;BME280;6149;52.418;13.668;2023-05-20T02:59:37;102151.38;;;10.70;100.00
12172;BME280;6149;52.418;13.668;2023-05-20T03:02:05;102144.78;;;10.83;100.00
12172;BME280;6149;52.418;13.668;2023-05-20T03:04:35;102150.13;;;10.82;100.00
12172;BME280;6149;52.418;13.668;2023-05-20T03:07:04;102147.69;;;10.76;100.00
12172;BME280;6149;52.418;13.668;2023-05-20T03:09:32;102140.75;;;10.71;100.00
12172;BME280;6149;52.418;13.668;2023-05-20T03:12:00;102144.84;;;10.82;100.00
12172;BME280;6149;52.418;13.668;2023-05-20T03:14:27;102145.75;;;10.81;100.00
12172;BME280;6149;52.418;13.668;2023-05-20T03:17:00;102143.84;;;10.86;100.00
12172;BME280;6149;52.418;13.668;2023-05-20T03:19:30;102148.44;;;10.79;100.00
12172;BME280;6149;52.418;13.668;2023-05-20T03:22:02;102153.72;;;10.79;100.00
12172;BME280;6149;52.418;13.668;2023-05-20T03:24:29;102145.75;;;10.81;100.00
12172;BME280;6149;52.418;13.668;2023-05-20T03:26:59;102148.09;;;10.91;100.00
12172;BME280;6149;52.418;13.668;2023-05-20T03:29:26;102153.59;;;10.84;100.00
12172;BME280;6149;52.418;13.668;2023-05-20T03:31:52;102157.06;;;10.86;100.00
12172;BME280;6149;52.418;13.668;2023-05-20T03:34:19;102156.25;;;10.84;100.00
12172;BME280;6149;52.418;13.668;2023-05-20T03:36:50;102157.38;;;11.06;100.00
12172;BME280;6149;52.418;13.668;2023-05-20T03:39:20;102149.88;;;10.91;100.00
12172;BME280;6149;52.418;13.668;2023-05-20T03:41:47;102152.47;;;10.92;100.00
12172;BME280;6149;52.418;13.668;2023-05-20T03:44:13;102150.34;;;11.05;100.00
12172;BME280;6149;52.418;13.668;2023-05-20T03:46:42;102148.03;;;10.93;100.00
12172;BME280;6149;52.418;13.668;2023-05-20T03:49:08;102148.94;;;10.92;100.00
12172;BME280;6149;52.418;13.668;2023-05-20T03:51:37;102144.66;;;10.88;100.00
12172;BME280;6149;52.418;13.668;2023-05-20T03:54:05;102155.94;;;10.94;100.00
12172;BME280;6149;52.418;13.668;2023-05-20T03:56:35;102161.38;;;10.90;100.00
12172;BME280;6149;52.418;13.668;2023-05-20T03:59:02;102161.28;;;10.93;100.00
12172;BME280;6149;52.418;13.668;2023-05-20T04:01:29;102156.72;;;10.98;100.00
12172;BME280;6149;52.418;13.668;2023-05-20T04:03:56;102156.75;;;10.96;100.00
12172;BME280;6149;52.418;13.668;2023-05-20T04:06:23;102157.66;;;10.95;100.00
12172;BME280;6149;52.418;13.668;2023-05-20T04:08:50;102153.25;;;10.96;100.00
12172;BME280;6149;52.418;13.668;2023-05-20T04:11:21;102148.38;;;11.12;100.00
12172;BME280;6149;52.418;13.668;2023-05-20T04:13:50;102150.38;;;11.03;100.00
12172;BME280;6149;52.418;13.668;2023-05-20T04:16:17;102154.72;;;11.06;100.00
12172;BME280;6149;52.418;13.668;2023-05-20T04:18:45;102144.69;;;11.16;100.00
12172;BME280;6149;52.418;13.668;2023-05-20T04:21:12;102138.78;;;11.08;100.00
12172;BME280;6149;52.418;13.668;2023-05-20T04:23:39;102153.03;;;11.03;100.00
12172;BME280;6149;52.418;13.668;2023-05-20T04:26:06;102148.41;;;11.10;100.00
12172;BME280;6149;52.418;13.668;2023-05-20T04:28:34;102143.16;;;11.09;100.00
12172;BME280;6149;52.418;13.668;2023-05-20T04:31:05;102147.06;;;11.25;100.00
12172;BME280;6149;52.418;13.668;2023-05-20T04:33:32;102143.78;;;11.17;100.00
12172;BME280;6149;52.418;13.668;2023-05-20T04:36:05;102144.53;;;11.20;100.00
12172;BME280;6149;52.418;13.668;2023-05-20T04:38:32;102144.50;;;11.22;100.00
12172;BME280;6149;52.418;13.668;2023-05-20T04:41:01;102149.88;;;11.19;100.00
12172;BME280;6149;52.418;13.668;2023-05-20T04:43:32;102144.19;;;11.32;100.00
12172;BME280;6149;52.418;13.668;2023-05-20T04:46:00;102151.47;;;11.24;100.00
12172;BME280;6149;52.418;13.668;2023-05-20T04:48:33;102153.13;;;11.28;100.00
12172;BME280;6149;52.418;13.668;2023-05-20T04:51:01;102147.56;;;11.37;100.00
12172;BME280;6149;52.418;13.668;2023-05-20T04:53:29;102138.06;;;11.30;100.00
12172;BME280;6149;52.418;13.668;2023-05-20T04:56:02;102133.63;;;11.31;100.00
12172;BME280;6149;52.418;13.668;2023-05-20T04:58:32;102141.81;;;11.23;100.00
12172;BME280;6149;52.418;13.668;2023-05-20T05:01:00;102139.75;;;11.33;100.00
12172;BME280;6149;52.418;13.668;2023-05-20T05:03:26;102132.66;;;11.33;100.00
12172;BME280;6149;52.418;13.668;2023-05-20T05:05:59;102136.31;;;11.29;100.00
12172;BME280;6149;52.418;13.668;2023-05-20T05:08:30;102142.44;;;11.31;100.00
12172;BME280;6149;52.418;13.668;2023-05-20T05:10:56;102142.94;;;11.44;100.00
12172;BME280;6149;52.418;13.668;2023-05-20T05:13:23;102145.84;;;11.35;100.00
12172;BME280;6149;52.418;13.668;2023-05-20T05:15:57;102151.28;;;11.30;100.00
12172;BME280;6149;52.418;13.668;2023-05-20T05:18:26;102146.06;;;11.29;100.00
12172;BME280;6149;52.418;13.668;2023-05-20T05:21:02;102152.59;;;11.45;100.00
12172;BME280;6149;52.418;13.668;2023-05-20T05:23:31;102158.69;;;11.49;100.00
12172;BME280;6149;52.418;13.668;2023-05-20T05:25:59;102146.63;;;11.38;100.00
12172;BME280;6149;52.418;13.668;2023-05-20T05:28:26;102152.75;;;11.41;100.00
12172;BME280;6149;52.418;13.668;2023-05-20T05:30:55;102150.78;;;11.47;100.00
12172;BME280;6149;52.418;13.668;2023-05-20T05:33:24;102153.25;;;11.52;100.00
12172;BME280;6149;52.418;13.668;2023-05-20T05:35:50;102154.66;;;11.63;100.00
12172;BME280;6149;52.418;13.668;2023-05-20T05:38:18;102150.69;;;11.50;100.00
12172;BME280;6149;52.418;13.668;2023-05-20T05:40:45;102146.31;;;11.49;100.00
12172;BME280;6149;52.418;13.668;2023-05-20T05:43:12;102138.34;;;11.49;100.00
12172;BME280;6149;52.418;13.668;2023-05-20T05:45:38;102140.47;;;11.64;100.00
12172;BME280;6149;52.418;13.668;2023-05-20T05:48:06;102140.63;;;11.60;100.00
12172;BME280;6149;52.418;13.668;2023-05-20T05:50:33;102135.03;;;11.69;100.00
12172;BME280;6149;52.418;13.668;2023-05-20T05:53:01;102132.16;;;11.77;100.00
12172;BME280;6149;52.418;13.668;2023-05-20T05:55:35;102127.94;;;11.69;100.00
12172;BME280;6149;52.418;13.668;2023-05-20T05:58:01;102132.44;;;11.67;100.00
12172;BME280;6149;52.418;13.668;2023-05-20T06:00:30;102129.84;;;11.66;100.00
12172;BME280;6149;52.418;13.668;2023-05-20T06:02:57;102127.22;;;11.64;100.00
12172;BME280;6149;52.418;13.668;2023-05-20T06:05:25;102136.34;;;11.84;100.00
12172;BME280;6149;52.418;13.668;2023-05-20T06:07:52;102130.38;;;11.77;100.00
12172;BME280;6149;52.418;13.668;2023-05-20T06:10:18;102120.78;;;11.73;100.00
12172;BME280;6149;52.418;13.668;2023-05-20T06:12:47;102128.78;;;11.71;100.00
12172;BME280;6149;52.418;13.668;2023-05-20T06:15:14;102130.50;;;11.72;100.00
12172;BME280;6149;52.418;13.668;2023-05-20T06:17:41;102117.78;;;11.84;100.00
12172;BME280;6149;52.418;13.668;2023-05-20T06:20:08;102124.00;;;11.83;100.00
12172;BME280;6149;52.418;13.668;2023-05-20T06:22:35;102117.69;;;11.87;100.00
12172;BME280;6149;52.418;13.668;2023-05-20T06:25:03;102122.59;;;11.97;100.00
12172;BME280;6149;52.418;13.668;2023-05-20T06:27:32;102116.88;;;12.10;100.00
12172;BME280;6149;52.418;13.668;2023-05-20T06:30:08;102118.66;;;12.09;100.00
12172;BME280;6149;52.418;13.668;2023-05-20T06:32:36;102124.88;;;12.08;100.00
12172;BME280;6149;52.418;13.668;2023-05-20T06:35:03;102119.44;;;12.13;100.00
12172;BME280;6149;52.418;13.668;2023-05-20T06:37:31;102115.66;;;12.20;100.00
12172;BME280;6149;52.418;13.668;2023-05-20T06:39:59;102125.03;;;12.28;100.00
12172;BME280;6149;52.418;13.668;2023-05-20T06:42:28;102123.09;;;12.33;100.00
12172;BME280;6149;52.418;13.668;2023-05-20T06:44:59;102121.84;;;12.44;100.00
12172;BME280;6149;52.418;13.668;2023-05-20T06:47:31;102125.09;;;12.52;100.00
12172;BME280;6149;52.418;13.668;2023-05-20T06:49:59;102126.53;;;12.60;100.00
12172;BME280;6149;52.418;13.668;2023-05-20T06:52:34;102127.16;;;12.67;100.00
12172;BME280;6149;52.418;13.668;2023-05-20T06:55:03;102135.06;;;12.68;100.00
12172;BME280;6149;52.418;13.668;2023-05-20T06:57:32;102133.09;;;12.73;100.00
12172;BME280;6149;52.418;13.668;2023-05-20T07:00:01;102121.16;;;12.85;100.00
12172;BME280;6149;52.418;13.668;2023-05-20T07:02:33;102127.56;;;12.80;100.00
12172;BME280;6149;52.418;13.668;2023-05-20T07:05:00;102136.50;;;12.77;100.00
12172;BME280;6149;52.418;13.668;2023-05-20T07:07:29;102135.81;;;12.72;100.00
12172;BME280;6149;52.418;13.668;2023-05-20T07:09:57;102133.97;;;12.74;100.00
12172;BME280;6149;52.418;13.668;2023-05-20T07:12:24;102129.19;;;12.84;100.00
12172;BME280;6149;52.418;13.668;2023-05-20T07:14:51;102127.91;;;12.94;100.00
12172;BME280;6149;52.418;13.668;2023-05-20T07:17:17;102120.75;;;12.96;100.00
12172;BME280;6149;52.418;13.668;2023-05-20T07:19:46;102118.97;;;12.96;100.00
12172;BME280;6149;52.418;13.668;2023-05-20T07:22:14;102121.31;;;13.04;100.00
12172;BME280;6149;52.418;13.668;2023-05-20T07:24:41;102123.03;;;13.05;100.00
12172;BME280;6149;52.418;13.668;2023-05-20T07:27:08;102119.28;;;13.11;100.00
12172;BME280;6149;52.418;13.668;2023-05-20T07:29:35;102113.03;;;13.12;100.00
12172;BME280;6149;52.418;13.668;2023-05-20T07:32:03;102105.56;;;13.23;100.00
12172;BME280;6149;52.418;13.668;2023-05-20T07:34:30;102103.38;;;13.54;98.49
12172;BME280;6149;52.418;13.668;2023-05-20T07:36:59;102099.22;;;13.47;98.80
12172;BME280;6149;52.418;13.668;2023-05-20T07:39:28;102107.00;;;13.52;98.35
12172;BME280;6149;52.418;13.668;2023-05-20T07:41:56;102107.75;;;13.55;97.99
12172;BME280;6149;52.418;13.668;2023-05-20T07:44:23;102099.09;;;13.72;97.44
12172;BME280;6149;52.418;13.668;2023-05-20T07:46:52;102106.72;;;13.80;96.53
12172;BME280;6149;52.418;13.668;2023-05-20T07:49:18;102101.94;;;13.88;95.47
12172;BME280;6149;52.418;13.668;2023-05-20T07:51:45;102098.19;;;14.12;94.12
12172;BME280;6149;52.418;13.668;2023-05-20T07:54:14;102095.16;;;14.01;94.14
12172;BME280;6149;52.418;13.668;2023-05-20T07:56:41;102091.38;;;14.07;94.88
12172;BME280;6149;52.418;13.668;2023-05-20T07:59:07;102080.25;;;14.17;94.40
12172;BME280;6149;52.418;13.668;2023-05-20T08:01:35;102082.56;;;14.25;93.81
12172;BME280;6149;52.418;13.668;2023-05-20T08:04:03;102080.66;;;14.28;92.37
12172;BME280;6149;52.418;13.668;2023-05-20T08:06:31;102077.97;;;14.28;93.88
12172;BME280;6149;52.418;13.668;2023-05-20T08:09:01;102083.03;;;14.34;92.56
12172;BME280;6149;52.418;13.668;2023-05-20T08:11:41;102083.97;;;14.33;92.43
12172;BME280;6149;52.418;13.668;2023-05-20T08:14:08;102079.19;;;14.42;91.76
12172;BME280;6149;52.418;13.668;2023-05-20T08:16:36;102077.88;;;14.50;91.79
12172;BME280;6149;52.418;13.668;2023-05-20T08:19:04;102080.34;;;14.55;91.83
12172;BME280;6149;52.418;13.668;2023-05-20T08:21:32;102082.06;;;14.56;91.77
12172;BME280;6149;52.418;13.668;2023-05-20T08:24:00;102090.72;;;14.61;92.11
12172;BME280;6149;52.418;13.668;2023-05-20T08:26:27;102083.25;;;14.69;90.83
12172;BME280;6149;52.418;13.668;2023-05-20T08:28:55;102081.06;;;14.58;91.31
12172;BME280;6149;52.418;13.668;2023-05-20T08:31:22;102072.53;;;14.70;90.67
12172;BME280;6149;52.418;13.668;2023-05-20T08:33:51;102063.59;;;14.71;91.31
12172;BME280;6149;52.418;13.668;2023-05-20T08:36:17;102056.44;;;14.91;90.24
12172;BME280;6149;52.418;13.668;2023-05-20T08:38:46;102062.84;;;15.05;90.15
12172;BME280;6149;52.418;13.668;2023-05-20T08:41:13;102066.00;;;15.14;89.69
12172;BME280;6149;52.418;13.668;2023-05-20T08:43:40;102067.81;;;15.30;87.97
12172;BME280;6149;52.418;13.668;2023-05-20T08:46:09;102057.72;;;15.37;86.15
12172;BME280;6149;52.418;13.668;2023-05-20T08:48:38;102061.06;;;15.23;86.73
12172;BME280;6149;52.418;13.668;2023-05-20T08:51:08;102050.25;;;15.26;87.42
12172;BME280;6149;52.418;13.668;2023-05-20T08:53:36;102045.88;;;15.25;87.51
12172;BME280;6149;52.418;13.668;2023-05-20T08:56:05;102055.44;;;15.29;86.70
12172;BME280;6149;52.418;13.668;2023-05-20T08:58:36;102054.50;;;15.30;87.01
12172;BME280;6149;52.418;13.668;2023-05-20T09:01:04;102056.81;;;15.55;85.71
12172;BME280;6149;52.418;13.668;2023-05-20T09:03:35;102059.16;;;15.44;86.35
12172;BME280;6149;52.418;13.668;2023-05-20T09:06:03;102051.63;;;15.52;86.48
12172;BME280;6149;52.418;13.668;2023-05-20T09:08:32;102058.69;;;15.53;86.43
12172;BME280;6149;52.418;13.668;2023-05-20T09:10:59;102058.78;;;15.52;85.65
12172;BME280;6149;52.418;13.668;2023-05-20T09:13:30;102060.44;;;15.54;85.85
12172;BME280;6149;52.418;13.668;2023-05-20T09:15:59;102063.50;;;15.64;84.23
12172;BME280;6149;52.418;13.668;2023-05-20T09:18:29;102057.34;;;15.45;84.33
12172;BME280;6149;52.418;13.668;2023-05-20T09:21:04;102047.78;;;15.41;85.57
12172;BME280;6149;52.418;13.668;2023-05-20T09:23:35;102059.72;;;15.51;85.17
12172;BME280;6149;52.418;13.668;2023-05-20T09:26:04;102053.03;;;15.42;86.16
12172;BME280;6149;52.418;13.668;2023-05-20T09:28:32;102051.16;;;15.44;86.36
12172;BME280;6149;52.418;13.668;2023-05-20T09:31:04;102053.59;;;15.49;85.83
12172;BME280;6149;52.418;13.668;2023-05-20T09:33:32;102052.91;;;15.62;85.46
12172;BME280;6149;52.418;13.668;2023-05-20T09:36:06;102049.69;;;15.73;84.74
12172;BME280;6149;52.418;13.668;2023-05-20T09:38:36;102042.72;;;15.70;84.03
12172;BME280;6149;52.418;13.668;2023-05-20T09:41:06;102050.25;;;15.62;84.54
12172;BME280;6149;52.418;13.668;2023-05-20T09:43:33;102055.41;;;15.65;84.44
12172;BME280;6149;52.418;13.668;2023-05-20T09:46:01;102053.16;;;15.75;84.19
12172;BME280;6149;52.418;13.668;2023-05-20T09:48:34;102048.75;;;15.91;81.41
12172;BME280;6149;52.418;13.668;2023-05-20T09:51:09;102061.72;;;15.82;81.74
12172;BME280;6149;52.418;13.668;2023-05-20T09:53:37;102050.50;;;15.75;83.06
12172;BME280;6149;52.418;13.668;2023-05-20T09:56:08;102049.63;;;15.75;82.79
12172;BME280;6149;52.418;13.668;2023-05-20T09:58:35;102049.31;;;15.81;83.01
12172;BME280;6149;52.418;13.668;2023-05-20T10:01:05;102047.97;;;15.72;83.06
12172;BME280;6149;52.418;13.668;2023-05-20T10:03:33;102046.81;;;15.78;82.57
12172;BME280;6149;52.418;13.668;2023-05-20T10:06:20;102045.69;;;15.82;81.47
12172;BME280;6149;52.418;13.668;2023-05-20T10:09:08;102046.16;;;15.90;81.90
12172;BME280;6149;52.418;13.668;2023-05-20T10:11:49;102034.84;;;16.02;81.73
12172;BME280;6149;52.418;13.668;2023-05-20T10:14:32;102034.31;;;16.28;82.44
12172;BME280;6149;52.418;13.668;2023-05-20T10:17:09;102039.13;;;16.37;79.54
12172;BME280;6149;52.418;13.668;2023-05-20T10:19:41;102032.16;;;16.35;80.44
12172;BME280;6149;52.418;13.668;2023-05-20T10:22:10;102030.97;;;16.41;79.61
12172;BME280;6149;52.418;13.668;2023-05-20T10:24:40;102026.16;;;16.47;79.57
12172;BME280;6149;52.418;13.668;2023-05-20T10:27:10;102032.09;;;16.69;80.09
12172;BME280;6149;52.418;13.668;2023-05-20T10:29:42;102027.66;;;16.84;77.88
12172;BME280;6149;52.418;13.668;2023-05-20T10:32:10;102029.56;;;16.82;77.59
12172;BME280;6149;52.418;13.668;2023-05-20T10:34:44;102030.59;;;16.80;77.73
12172;BME280;6149;52.418;13.668;2023-05-20T10:37:22;102037.50;;;16.84;76.91
12172;BME280;6149;52.418;13.668;2023-05-20T10:39:52;102035.25;;;16.76;77.62
12172;BME280;6149;52.418;13.668;2023-05-20T10:42:32;102026.53;;;16.73;79.06
12172;BME280;6149;52.418;13.668;2023-05-20T10:44:58;102025.69;;;16.88;77.24
12172;BME280;6149;52.418;13.668;2023-05-20T10:47:25;102026.72;;;16.85;78.04
12172;BME280;6149;52.418;13.668;2023-05-20T10:49:54;102018.53;;;16.88;77.07
12172;BME280;6149;52.418;13.668;2023-05-20T10:52:24;102008.53;;;17.08;78.74
12172;BME280;6149;52.418;13.668;2023-05-20T10:54:54;102009.50;;;17.21;77.62
12172;BME280;6149;52.418;13.668;2023-05-20T10:57:25;102009.94;;;17.13;77.76
12172;BME280;6149;52.418;13.668;2023-05-20T10:59:53;102006.59;;;17.10;77.08
12172;BME280;6149;52.418;13.668;2023-05-20T11:02:21;102004.88;;;17.09;77.68
12172;BME280;6149;52.418;13.668;2023-05-20T11:04:51;102002.25;;;17.23;77.94
12172;BME280;6149;52.418;13.668;2023-05-20T11:07:32;101994.66;;;17.31;76.42
12172;BME280;6149;52.418;13.668;2023-05-20T11:09:58;101996.22;;;17.49;75.63
12172;BME280;6149;52.418;13.668;2023-05-20T11:12:26;102000.50;;;17.37;75.40
12172;BME280;6149;52.418;13.668;2023-05-20T11:14:55;101993.81;;;17.30;76.46
12172;BME280;6149;52.418;13.668;2023-05-20T11:17:22;101988.91;;;17.23;78.33
12172;BME280;6149;52.418;13.668;2023-05-20T11:19:51;101998.28;;;17.30;76.60
12172;BME280;6149;52.418;13.668;2023-05-20T11:22:20;101980.19;;;17.49;76.40
12172;BME280;6149;52.418;13.668;2023-05-20T11:24:48;101983.22;;;17.73;75.08
12172;BME280;6149;52.418;13.668;2023-05-20T11:27:18;101984.09;;;17.88;73.82
12172;BME280;6149;52.418;13.668;2023-05-20T11:29:44;101972.72;;;17.98;75.54
12172;BME280;6149;52.418;13.668;2023-05-20T11:32:14;101967.63;;;18.22;73.47
12172;BME280;6149;52.418;13.668;2023-05-20T11:34:45;101977.19;;;18.26;72.13
12172;BME280;6149;52.418;13.668;2023-05-20T11:37:17;101971.84;;;18.41;72.68
12172;BME280;6149;52.418;13.668;2023-05-20T11:39:44;101970.59;;;18.32;72.66
12172;BME280;6149;52.418;13.668;2023-05-20T11:42:13;101969.84;;;18.30;71.94
12172;BME280;6149;52.418;13.668;2023-05-20T11:44:42;101967.84;;;18.05;72.42
12172;BME280;6149;52.418;13.668;2023-05-20T11:47:09;101966.44;;;18.14;73.60
12172;BME280;6149;52.418;13.668;2023-05-20T11:49:39;101974.38;;;18.15;71.27
12172;BME280;6149;52.418;13.668;2023-05-20T11:52:08;101965.38;;;18.16;72.39
12172;BME280;6149;52.418;13.668;2023-05-20T11:54:37;101970.53;;;18.19;71.26
12172;BME280;6149;52.418;13.668;2023-05-20T11:57:05;101963.66;;;18.01;71.97
12172;BME280;6149;52.418;13.668;2023-05-20T11:59:34;101960.69;;;18.06;73.38
12172;BME280;6149;52.418;13.668;2023-05-20T12:02:01;101960.50;;;18.09;73.70
12172;BME280;6149;52.418;13.668;2023-05-20T12:04:29;101955.03;;;18.10;72.46
12172;BME280;6149;52.418;13.668;2023-05-20T12:06:57;101945.69;;;18.03;72.52
12172;BME280;6149;52.418;13.668;2023-05-20T12:09:24;101945.97;;;18.13;73.30
12172;BME280;6149;52.418;13.668;2023-05-20T12:11:51;101953.84;;;18.28;72.66
12172;BME280;6149;52.418;13.668;2023-05-20T12:14:21;101945.50;;;18.06;73.06
12172;BME280;6149;52.418;13.668;2023-05-20T12:16:50;101948.75;;;18.11;72.35
12172;BME280;6149;52.418;13.668;2023-05-20T12:19:17;101941.28;;;18.16;71.91
12172;BME280;6149;52.418;13.668;2023-05-20T12:21:44;101932.19;;;18.04;72.35
12172;BME280;6149;52.418;13.668;2023-05-20T12:24:12;101938.88;;;18.12;73.09
12172;BME280;6149;52.418;13.668;2023-05-20T12:26:38;101933.81;;;18.07;73.01
12172;BME280;6149;52.418;13.668;2023-05-20T12:29:06;101929.31;;;18.08;73.09
12172;BME280;6149;52.418;13.668;2023-05-20T12:31:33;101919.66;;;18.05;72.93
12172;BME280;6149;52.418;13.668;2023-05-20T12:34:06;101926.25;;;18.14;73.64
12172;BME280;6149;52.418;13.668;2023-05-20T12:36:33;101911.50;;;18.21;72.58
12172;BME280;6149;52.418;13.668;2023-05-20T12:39:03;101924.88;;;18.35;71.80
12172;BME280;6149;52.418;13.668;2023-05-20T12:41:32;101922.28;;;18.33;71.72
12172;BME280;6149;52.418;13.668;2023-05-20T12:43:59;101916.84;;;18.21;72.55
12172;BME280;6149;52.418;13.668;2023-05-20T12:46:30;101913.56;;;18.03;72.84
12172;BME280;6149;52.418;13.668;2023-05-20T12:48:59;101906.97;;;17.80;74.04
12172;BME280;6149;52.418;13.668;2023-05-20T12:51:30;101906.56;;;17.86;73.74
12172;BME280;6149;52.418;13.668;2023-05-20T12:53:57;101890.03;;;17.94;74.86